Time;durP1;ratioP1;P1;durP2;ratioP2;P2;SDS_P1;SDS_P2;PMS_P1;PMS_P2;Temp;Humidity;BMP_temperature;BMP_pressure;BME280_temperature;BME280_humidity;BME280_pressure;Samples;Min_cycle;Max_cycle;Signal;HPM_P1;HPM_P2
2023/12/24 00:01:12;;;;;;;0.98;0.90;;;;;;;;;;5072357;28;20213;-62
2023/12/24 00:03:39;;;;;;;0.73;0.73;;;;;;;;;;5072716;28;20727;-61
2023/12/24 00:06:08;;;;;;;0.90;0.90;;;;;;;;;;5072606;28;20559;-61
2023/12/24 00:08:36;;;;;;;0.80;0.80;;;;;;;;;;5072584;28;20276;-61
2023/12/24 00:11:03;;;;;;;0.75;0.70;;;;;;;;;;5072428;28;20212;-61
2023/12/24 00:13:31;;;;;;;0.70;0.70;;;;;;;;;;5072399;28;20275;-62
2023/12/24 00:15:58;;;;;;;1.03;0.87;;;;;;;;;;5072249;28;20243;-61
2023/12/24 00:18:25;;;;;;;0.75;0.70;;;;;;;;;;5072512;28;20477;-61
2023/12/24 00:20:52;;;;;;;0.80;0.80;;;;;;;;;;5074251;28;20212;-61
2023/12/24 00:23:20;;;;;;;0.90;0.90;;;;;;;;;;5076059;28;20211;-61
2023/12/24 00:25:47;;;;;;;0.80;0.80;;;;;;;;;;5076074;28;20878;-61
2023/12/24 00:28:14;;;;;;;0.82;0.82;;;;;;;;;;5076181;28;20193;-62
2023/12/24 00:30:41;;;;;;;0.90;0.70;;;;;;;;;;5076055;28;20280;-61
2023/12/24 00:33:08;;;;;;;0.70;0.70;;;;;;;;;;5076077;28;20720;-62
2023/12/24 00:35:35;;;;;;;0.70;0.60;;;;;;;;;;5075885;28;20280;-61
2023/12/24 00:38:02;;;;;;;0.90;0.70;;;;;;;;;;5075900;28;20653;-61
2023/12/24 00:40:32;;;;;;;0.90;0.73;;;;;;;;;;5075635;28;20454;-61
2023/12/24 00:42:59;;;;;;;0.70;0.60;;;;;;;;;;5075576;28;20224;-62
2023/12/24 00:45:26;;;;;;;0.70;0.70;;;;;;;;;;5075822;28;20645;-61
2023/12/24 00:47:53;;;;;;;0.80;0.70;;;;;;;;;;5075737;28;20193;-61
2023/12/24 00:50:20;;;;;;;0.70;0.70;;;;;;;;;;5075398;28;20644;-61
2023/12/24 00:52:47;;;;;;;0.82;0.82;;;;;;;;;;5075567;28;20189;-61
2023/12/24 00:55:14;;;;;;;1.23;0.90;;;;;;;;;;5075404;28;20232;-61
2023/12/24 00:57:42;;;;;;;1.25;0.80;;;;;;;;;;5075336;28;20678;-61
2023/12/24 01:00:10;;;;;;;1.00;0.90;;;;;;;;;;5075583;28;20280;-62
2023/12/24 01:02:37;;;;;;;0.80;0.80;;;;;;;;;;5075392;28;20309;-61
2023/12/24 01:05:06;;;;;;;1.50;0.87;;;;;;;;;;5075332;28;20216;-62
2023/12/24 01:07:33;;;;;;;0.80;0.80;;;;;;;;;;5075286;28;20447;-61
2023/12/24 01:10:00;;;;;;;0.80;0.80;;;;;;;;;;5075152;28;20189;-61
2023/12/24 01:12:27;;;;;;;0.70;0.70;;;;;;;;;;5075398;28;20190;-61
2023/12/24 01:14:56;;;;;;;0.80;0.80;;;;;;;;;;5075269;28;20277;-61
2023/12/24 01:17:23;;;;;;;1.23;0.90;;;;;;;;;;5075239;28;20544;-62
2023/12/24 01:19:50;;;;;;;1.00;0.90;;;;;;;;;;5075100;28;20212;-61
2023/12/24 01:22:17;;;;;;;0.77;0.77;;;;;;;;;;5074944;28;20290;-61
2023/12/24 01:24:44;;;;;;;0.73;0.73;;;;;;;;;;5074877;28;20242;-62
2023/12/24 01:27:11;;;;;;;0.93;0.90;;;;;;;;;;5075101;28;20280;-61
2023/12/24 01:29:38;;;;;;;0.80;0.80;;;;;;;;;;5074926;28;20277;-61
2023/12/24 01:32:07;;;;;;;0.80;0.80;;;;;;;;;;5074066;28;20557;-62
2023/12/24 01:34:34;;;;;;;0.70;0.70;;;;;;;;;;5074732;28;20567;-61
2023/12/24 01:37:01;;;;;;;0.70;0.70;;;;;;;;;;5074745;28;20192;-61
2023/12/24 01:39:27;;;;;;;0.98;0.90;;;;;;;;;;5074781;28;20191;-62
2023/12/24 01:41:54;;;;;;;0.70;0.70;;;;;;;;;;5074693;28;20217;-61
2023/12/24 01:44:21;;;;;;;0.80;0.80;;;;;;;;;;5074662;28;20272;-61
2023/12/24 01:46:48;;;;;;;0.80;0.70;;;;;;;;;;5074400;28;20196;-61
2023/12/24 01:49:17;;;;;;;0.80;0.70;;;;;;;;;;5074547;28;20193;-61
2023/12/24 01:51:44;;;;;;;0.80;0.80;;;;;;;;;;5074307;28;20225;-61
2023/12/24 01:54:12;;;;;;;0.80;0.68;;;;;;;;;;5074355;28;20195;-62
2023/12/24 01:56:40;;;;;;;0.70;0.70;;;;;;;;;;5074454;28;20192;-61
2023/12/24 01:59:07;;;;;;;0.70;0.68;;;;;;;;;;5074328;28;20189;-62
2023/12/24 02:01:35;;;;;;;0.70;0.70;;;;;;;;;;5073971;28;20701;-61
2023/12/24 02:04:02;;;;;;;1.08;0.98;;;;;;;;;;5074359;28;20284;-61
2023/12/24 02:06:30;;;;;;;0.77;0.77;;;;;;;;;;5074255;28;20277;-61
2023/12/24 02:08:57;;;;;;;0.80;0.65;;;;;;;;;;5074098;28;20196;-61
2023/12/24 02:11:24;;;;;;;0.60;0.60;;;;;;;;;;5074055;28;20189;-60
2023/12/24 02:13:51;;;;;;;0.70;0.70;;;;;;;;;;5073934;28;20280;-61
2023/12/24 02:16:20;;;;;;;1.50;0.70;;;;;;;;;;5073819;28;20189;-61
2023/12/24 02:18:47;;;;;;;0.70;0.70;;;;;;;;;;5073728;28;20193;-62
2023/12/24 02:21:15;;;;;;;0.60;0.60;;;;;;;;;;5073922;28;20191;-61
2023/12/24 02:23:42;;;;;;;0.70;0.70;;;;;;;;;;5073811;28;20227;-61
2023/12/24 02:26:13;;;;;;;0.80;0.80;;;;;;;;;;5073760;28;20193;-62
2023/12/24 02:28:41;;;;;;;0.80;0.80;;;;;;;;;;5073904;28;20204;-61
2023/12/24 02:31:10;;;;;;;0.70;0.70;;;;;;;;;;5074058;28;21022;-61
2023/12/24 02:33:40;;;;;;;0.85;0.75;;;;;;;;;;5073403;28;20576;-61
2023/12/24 02:36:08;;;;;;;1.10;1.00;;;;;;;;;;5073845;28;20200;-61
2023/12/24 02:38:36;;;;;;;1.20;1.10;;;;;;;;;;5073521;28;20280;-61
2023/12/24 02:41:04;;;;;;;1.08;0.90;;;;;;;;;;5073442;28;20534;-61
2023/12/24 02:43:31;;;;;;;1.00;1.00;;;;;;;;;;5073256;28;20678;-61
2023/12/24 02:45:59;;;;;;;1.38;0.90;;;;;;;;;;5073271;28;20672;-61
2023/12/24 02:48:26;;;;;;;1.10;1.00;;;;;;;;;;5073448;28;20284;-61
2023/12/24 02:50:53;;;;;;;1.50;1.40;;;;;;;;;;5073394;28;20549;-61
2023/12/24 02:53:20;;;;;;;1.33;1.23;;;;;;;;;;5073167;28;20695;-61
2023/12/24 02:55:48;;;;;;;1.20;1.10;;;;;;;;;;5073268;28;20256;-61
2023/12/24 02:58:17;;;;;;;1.00;0.90;;;;;;;;;;5073163;28;20287;-61
2023/12/24 03:00:44;;;;;;;1.10;1.00;;;;;;;;;;5073314;28;20196;-61
2023/12/24 03:03:11;;;;;;;1.30;1.20;;;;;;;;;;5073190;28;20307;-61
2023/12/24 03:05:38;;;;;;;1.20;1.10;;;;;;;;;;5073043;28;20193;-61
2023/12/24 03:08:05;;;;;;;0.90;0.90;;;;;;;;;;5073125;28;20217;-61
2023/12/24 03:10:32;;;;;;;1.30;1.20;;;;;;;;;;5073133;28;20281;-61
2023/12/24 03:13:00;;;;;;;1.20;1.10;;;;;;;;;;5072890;28;20189;-61
2023/12/24 03:15:27;;;;;;;1.00;0.90;;;;;;;;;;5073214;28;20283;-61
2023/12/24 03:17:54;;;;;;;0.90;0.90;;;;;;;;;;5072855;28;20197;-61
2023/12/24 03:20:21;;;;;;;2.00;0.98;;;;;;;;;;5072959;28;20279;-62
2023/12/24 03:22:48;;;;;;;0.70;0.70;;;;;;;;;;5072866;28;20300;-61
2023/12/24 03:25:15;;;;;;;1.30;1.20;;;;;;;;;;5072832;28;20185;-61
2023/12/24 03:27:42;;;;;;;1.77;0.85;;;;;;;;;;5072760;28;20272;-61
2023/12/24 03:30:11;;;;;;;0.98;0.93;;;;;;;;;;5072971;28;20195;-61
2023/12/24 03:32:38;;;;;;;0.70;0.70;;;;;;;;;;5073189;28;20185;-61
2023/12/24 03:35:05;;;;;;;0.80;0.80;;;;;;;;;;5072856;28;20284;-61
2023/12/24 03:37:32;;;;;;;0.75;0.75;;;;;;;;;;5072707;28;20620;-61
2023/12/24 03:39:59;;;;;;;0.70;0.60;;;;;;;;;;5072650;28;20199;-61
2023/12/24 03:42:26;;;;;;;0.70;0.60;;;;;;;;;;5072848;28;20217;-62
2023/12/24 03:44:53;;;;;;;0.80;0.80;;;;;;;;;;5072793;28;20204;-61
2023/12/24 03:47:21;;;;;;;0.80;0.80;;;;;;;;;;5072890;28;20200;-61
2023/12/24 03:49:48;;;;;;;0.60;0.60;;;;;;;;;;5072646;28;20280;-61
2023/12/24 03:52:15;;;;;;;0.85;0.75;;;;;;;;;;5072617;28;20556;-61
2023/12/24 03:54:42;;;;;;;0.70;0.70;;;;;;;;;;5072426;28;20308;-61
2023/12/24 03:57:09;;;;;;;0.80;0.80;;;;;;;;;;5076252;28;20636;-61
2023/12/24 03:59:35;;;;;;;1.65;0.88;;;;;;;;;;5076898;28;20189;-61
2023/12/24 04:02:03;;;;;;;1.02;0.80;;;;;;;;;;5076459;28;20193;-62
2023/12/24 04:04:31;;;;;;;1.05;0.80;;;;;;;;;;5076375;28;20239;-61
2023/12/24 04:07:00;;;;;;;0.70;0.60;;;;;;;;;;5076287;28;20280;-61
2023/12/24 04:09:29;;;;;;;0.90;0.80;;;;;;;;;;5076190;28;20208;-62
2023/12/24 04:11:56;;;;;;;0.85;0.70;;;;;;;;;;5076391;28;20189;-61
2023/12/24 04:14:23;;;;;;;0.70;0.70;;;;;;;;;;5076304;28;20197;-61
2023/12/24 04:16:50;;;;;;;0.80;0.70;;;;;;;;;;5076147;28;20620;-61
2023/12/24 04:19:17;;;;;;;0.70;0.70;;;;;;;;;;5076075;28;20276;-61
2023/12/24 04:21:45;;;;;;;0.95;0.80;;;;;;;;;;5076226;28;20185;-61
2023/12/24 04:24:12;;;;;;;0.73;0.73;;;;;;;;;;5076120;28;20680;-61
2023/12/24 04:26:39;;;;;;;0.80;0.70;;;;;;;;;;5076115;28;20371;-61
2023/12/24 04:29:07;;;;;;;1.45;0.90;;;;;;;;;;5075992;28;20185;-61
2023/12/24 04:31:34;;;;;;;0.90;0.80;;;;;;;;;;5075959;28;20189;-61
2023/12/24 04:34:01;;;;;;;0.98;0.80;;;;;;;;;;5075920;28;20275;-61
2023/12/24 04:36:27;;;;;;;1.42;1.10;;;;;;;;;;5075702;28;20280;-61
2023/12/24 04:38:56;;;;;;;0.70;0.70;;;;;;;;;;5075925;28;20185;-61
2023/12/24 04:41:23;;;;;;;0.70;0.65;;;;;;;;;;5075848;28;20752;-61
2023/12/24 04:43:49;;;;;;;0.90;0.80;;;;;;;;;;5075713;28;20223;-61
2023/12/24 04:46:16;;;;;;;1.42;0.70;;;;;;;;;;5075873;28;20284;-61
2023/12/24 04:48:43;;;;;;;0.60;0.60;;;;;;;;;;5075489;28;20193;-61
2023/12/24 04:51:11;;;;;;;1.50;1.40;;;;;;;;;;5075492;28;20616;-61
2023/12/24 04:53:38;;;;;;;1.48;1.38;;;;;;;;;;5075595;28;20283;-61
2023/12/24 04:56:07;;;;;;;0.68;0.60;;;;;;;;;;5075558;28;20227;-61
2023/12/24 04:58:34;;;;;;;0.70;0.70;;;;;;;;;;5075436;28;20193;-61
2023/12/24 05:01:05;;;;;;;0.65;0.60;;;;;;;;;;5075563;28;20672;-61
2023/12/24 05:03:31;;;;;;;0.60;0.50;;;;;;;;;;5075128;28;20228;-61
2023/12/24 05:05:58;;;;;;;0.60;0.50;;;;;;;;;;5075156;28;20556;-61
2023/12/24 05:08:25;;;;;;;0.70;0.60;;;;;;;;;;5074763;28;20276;-61
2023/12/24 05:10:53;;;;;;;0.60;0.60;;;;;;;;;;5075200;28;20215;-61
2023/12/24 05:13:21;;;;;;;0.60;0.60;;;;;;;;;;5075116;28;20196;-61
2023/12/24 05:15:48;;;;;;;0.50;0.40;;;;;;;;;;5075008;28;20599;-62
2023/12/24 05:18:15;;;;;;;0.60;0.50;;;;;;;;;;5074843;28;20197;-61
2023/12/24 05:20:42;;;;;;;0.60;0.50;;;;;;;;;;5075167;28;20185;-61
2023/12/24 05:23:09;;;;;;;0.60;0.50;;;;;;;;;;5074967;28;20625;-61
2023/12/24 05:25:36;;;;;;;0.60;0.50;;;;;;;;;;5075037;28;20195;-61
2023/12/24 05:28:03;;;;;;;0.68;0.50;;;;;;;;;;5074865;28;20271;-61
2023/12/24 05:30:31;;;;;;;0.60;0.60;;;;;;;;;;5074810;28;20281;-61
2023/12/24 05:32:58;;;;;;;1.45;0.80;;;;;;;;;;5074934;28;20608;-61
2023/12/24 05:35:25;;;;;;;0.65;0.60;;;;;;;;;;5074889;28;20568;-61
2023/12/24 05:37:52;;;;;;;0.70;0.70;;;;;;;;;;5074703;28;20296;-61
2023/12/24 05:40:19;;;;;;;0.80;0.80;;;;;;;;;;5074601;28;20189;-61
2023/12/24 05:42:46;;;;;;;0.80;0.80;;;;;;;;;;5074550;28;20221;-61
2023/12/24 05:45:13;;;;;;;0.60;0.55;;;;;;;;;;5074400;28;20272;-61
2023/12/24 05:47:41;;;;;;;0.50;0.40;;;;;;;;;;5074625;28;20544;-61
2023/12/24 05:50:09;;;;;;;0.60;0.50;;;;;;;;;;5074780;28;20280;-61
2023/12/24 05:52:37;;;;;;;0.90;0.60;;;;;;;;;;5074375;28;20189;-61
2023/12/24 05:55:04;;;;;;;0.60;0.50;;;;;;;;;;5074256;28;20275;-61
2023/12/24 05:57:31;;;;;;;0.70;0.50;;;;;;;;;;5074455;28;20196;-61
2023/12/24 05:59:58;;;;;;;0.60;0.50;;;;;;;;;;5074406;28;20612;-61
2023/12/24 06:02:25;;;;;;;0.52;0.50;;;;;;;;;;5074265;28;20231;-61
2023/12/24 06:04:53;;;;;;;0.60;0.50;;;;;;;;;;5074127;28;20246;-61
2023/12/24 06:07:20;;;;;;;0.50;0.40;;;;;;;;;;5074365;28;20192;-61
2023/12/24 06:09:47;;;;;;;0.50;0.40;;;;;;;;;;5073972;28;20228;-61
2023/12/24 06:12:14;;;;;;;0.60;0.50;;;;;;;;;;5073844;28;20201;-61
2023/12/24 06:14:41;;;;;;;0.65;0.50;;;;;;;;;;5074047;28;20637;-61
2023/12/24 06:17:08;;;;;;;0.50;0.50;;;;;;;;;;5074052;28;20185;-61
2023/12/24 06:19:35;;;;;;;0.50;0.50;;;;;;;;;;5073582;28;20552;-61
2023/12/24 06:22:05;;;;;;;0.60;0.50;;;;;;;;;;5073818;28;20195;-61
2023/12/24 06:24:32;;;;;;;0.60;0.50;;;;;;;;;;5073648;28;20213;-62
2023/12/24 06:26:59;;;;;;;0.60;0.50;;;;;;;;;;5073886;28;20189;-61
2023/12/24 06:29:25;;;;;;;0.70;0.70;;;;;;;;;;5073773;28;20217;-61
2023/12/24 06:31:52;;;;;;;0.60;0.50;;;;;;;;;;5073505;28;20193;-61
2023/12/24 06:34:20;;;;;;;0.60;0.50;;;;;;;;;;5073540;28;20194;-61
2023/12/24 06:36:47;;;;;;;0.60;0.60;;;;;;;;;;5073452;28;20196;-61
2023/12/24 06:39:15;;;;;;;0.70;0.60;;;;;;;;;;5073326;28;20189;-61
2023/12/24 06:41:42;;;;;;;0.82;0.80;;;;;;;;;;5073603;28;20276;-61
2023/12/24 06:44:09;;;;;;;0.70;0.65;;;;;;;;;;5073464;28;20649;-61
2023/12/24 06:46:36;;;;;;;0.80;0.80;;;;;;;;;;5073311;28;20731;-61
2023/12/24 06:49:03;;;;;;;0.85;0.85;;;;;;;;;;5073539;28;20185;-61
2023/12/24 06:51:29;;;;;;;0.80;0.80;;;;;;;;;;5073327;28;20195;-61
2023/12/24 06:53:56;;;;;;;0.90;0.90;;;;;;;;;;5073083;28;20275;-61
2023/12/24 06:56:25;;;;;;;1.20;1.10;;;;;;;;;;5072973;28;20625;-61
2023/12/24 06:58:52;;;;;;;1.00;0.80;;;;;;;;;;5073305;28;20191;-61
2023/12/24 07:01:19;;;;;;;0.80;0.80;;;;;;;;;;5073215;28;20561;-61
2023/12/24 07:03:46;;;;;;;0.90;0.90;;;;;;;;;;5073025;28;20584;-61
2023/12/24 07:06:13;;;;;;;0.90;0.90;;;;;;;;;;5072957;28;20189;-61
2023/12/24 07:08:39;;;;;;;1.25;1.00;;;;;;;;;;5072926;28;20200;-61
2023/12/24 07:11:06;;;;;;;1.80;1.10;;;;;;;;;;5073345;28;20199;-61
2023/12/24 07:13:35;;;;;;;1.15;1.05;;;;;;;;;;5072996;28;20220;-60
2023/12/24 07:16:02;;;;;;;1.10;1.00;;;;;;;;;;5072974;28;20641;-61
2023/12/24 07:18:30;;;;;;;1.40;1.30;;;;;;;;;;5072895;28;20664;-60
2023/12/24 07:20:57;;;;;;;1.20;1.10;;;;;;;;;;5072803;28;20553;-61
2023/12/24 07:23:23;;;;;;;1.40;1.30;;;;;;;;;;5072972;28;20219;-61
2023/12/24 07:25:50;;;;;;;1.38;1.27;;;;;;;;;;5072919;28;20196;-61
2023/12/24 07:28:17;;;;;;;1.75;1.65;;;;;;;;;;5072925;28;20279;-61
2023/12/24 07:30:45;;;;;;;1.85;1.75;;;;;;;;;;5072050;28;20189;-61
2023/12/24 07:33:12;;;;;;;2.70;2.50;;;;;;;;;;5072692;28;20228;-61
2023/12/24 07:35:39;;;;;;;3.95;3.65;;;;;;;;;;5072617;28;20276;-61
2023/12/24 07:38:06;;;;;;;2.60;2.40;;;;;;;;;;5072879;28;20276;-61
2023/12/24 07:40:33;;;;;;;3.50;3.20;;;;;;;;;;5072800;28;20453;-61
2023/12/24 07:43:01;;;;;;;2.50;2.30;;;;;;;;;;5072837;28;20675;-61
2023/12/24 07:45:28;;;;;;;2.25;2.05;;;;;;;;;;5072622;28;20315;-61
2023/12/24 07:47:57;;;;;;;2.00;1.90;;;;;;;;;;5072518;28;20193;-61
2023/12/24 07:50:24;;;;;;;2.20;2.00;;;;;;;;;;5072544;28;20193;-61
2023/12/24 07:52:51;;;;;;;3.03;2.83;;;;;;;;;;5072786;28;20200;-61
2023/12/24 07:55:18;;;;;;;2.53;2.40;;;;;;;;;;5072486;28;20478;-62
2023/12/24 07:57:45;;;;;;;2.70;2.50;;;;;;;;;;5072604;28;20196;-61
2023/12/24 08:00:12;;;;;;;3.60;3.30;;;;;;;;;;5072901;28;20199;-61
2023/12/24 08:02:39;;;;;;;5.70;5.20;;;;;;;;;;5072343;28;20864;-61
2023/12/24 08:05:09;;;;;;;4.40;4.10;;;;;;;;;;5072553;28;20935;-61
2023/12/24 08:07:36;;;;;;;5.00;4.60;;;;;;;;;;5072469;28;20462;-61
2023/12/24 08:10:03;;;;;;;4.00;3.70;;;;;;;;;;5072383;28;20540;-61
2023/12/24 08:12:30;;;;;;;5.67;4.57;;;;;;;;;;5072420;28;20443;-61
2023/12/24 08:14:57;;;;;;;6.03;5.00;;;;;;;;;;5072306;28;20505;-62
2023/12/24 08:17:24;;;;;;;6.77;6.27;;;;;;;;;;5072289;28;20469;-61
2023/12/24 08:19:54;;;;;;;5.50;5.10;;;;;;;;;;5072209;28;20447;-61
2023/12/24 08:22:22;;;;;;;5.13;4.73;;;;;;;;;;5072437;28;20448;-62
2023/12/24 08:24:49;;;;;;;4.77;4.40;;;;;;;;;;5072275;28;20593;-61
2023/12/24 08:27:16;;;;;;;4.63;4.33;;;;;;;;;;5072400;28;20538;-61
2023/12/24 08:29:43;;;;;;;4.83;4.33;;;;;;;;;;5072097;28;20447;-62
2023/12/24 08:32:10;;;;;;;9.80;4.27;;;;;;;;;;5072400;28;20454;-61
2023/12/24 08:34:37;;;;;;;4.47;4.17;;;;;;;;;;5072254;28;20439;-61
2023/12/24 08:37:04;;;;;;;4.17;3.90;;;;;;;;;;5072160;28;20855;-61
2023/12/24 08:39:32;;;;;;;4.27;3.90;;;;;;;;;;5072116;28;20881;-61
2023/12/24 08:41:59;;;;;;;4.63;4.33;;;;;;;;;;5074113;28;20448;-61
2023/12/24 08:44:26;;;;;;;4.50;4.20;;;;;;;;;;5075756;28;20483;-62
2023/12/24 08:46:53;;;;;;;4.80;4.40;;;;;;;;;;5075752;28;20536;-61
2023/12/24 08:49:20;;;;;;;4.10;3.80;;;;;;;;;;5075705;28;20444;-61
2023/12/24 08:51:47;;;;;;;5.50;4.87;;;;;;;;;;5075694;28;20538;-62
2023/12/24 08:54:14;;;;;;;4.60;4.20;;;;;;;;;;5075307;28;20447;-62
2023/12/24 08:56:42;;;;;;;5.40;4.90;;;;;;;;;;5075293;28;20534;-62
2023/12/24 08:59:09;;;;;;;5.03;4.63;;;;;;;;;;5075526;28;20526;-62
2023/12/24 09:01:40;;;;;;;7.23;6.53;;;;;;;;;;5075439;28;20444;-61
2023/12/24 09:04:07;;;;;;;6.10;5.60;;;;;;;;;;5075345;28;20826;-62
2023/12/24 09:06:34;;;;;;;7.23;5.33;;;;;;;;;;5075424;28;21010;-62
2023/12/24 09:09:01;;;;;;;5.00;4.53;;;;;;;;;;5075200;28;20483;-62
2023/12/24 09:11:28;;;;;;;5.40;4.43;;;;;;;;;;5075298;28;20535;-62
2023/12/24 09:13:56;;;;;;;4.53;4.23;;;;;;;;;;5075230;28;20455;-61
2023/12/24 09:16:22;;;;;;;5.67;5.07;;;;;;;;;;5075170;28;20829;-61
2023/12/24 09:18:49;;;;;;;4.70;4.40;;;;;;;;;;5074991;28;21006;-62
2023/12/24 09:21:16;;;;;;;4.90;4.40;;;;;;;;;;5075030;28;20534;-62
2023/12/24 09:23:43;;;;;;;3.70;3.40;;;;;;;;;;5074795;28;20512;-62
2023/12/24 09:26:10;;;;;;;4.10;3.80;;;;;;;;;;5075028;28;20542;-62
2023/12/24 09:28:37;;;;;;;3.90;3.60;;;;;;;;;;5075178;28;20450;-62
2023/12/24 09:31:05;;;;;;;3.03;2.70;;;;;;;;;;5074853;28;20536;-59
2023/12/24 09:33:33;;;;;;;2.50;2.17;;;;;;;;;;5074847;28;21026;-59
2023/12/24 09:36:00;;;;;;;2.10;1.90;;;;;;;;;;5074636;28;20534;-60
2023/12/24 09:38:27;;;;;;;1.80;1.70;;;;;;;;;;5074568;28;21026;-60
2023/12/24 09:40:54;;;;;;;1.80;1.50;;;;;;;;;;5074666;28;21010;-60
2023/12/24 09:43:21;;;;;;;2.20;2.00;;;;;;;;;;5074604;28;20538;-60
2023/12/24 09:45:48;;;;;;;1.93;1.70;;;;;;;;;;5074645;28;20487;-59
2023/12/24 09:48:16;;;;;;;2.17;1.50;;;;;;;;;;5074484;28;20450;-60
2023/12/24 09:50:43;;;;;;;1.73;1.63;;;;;;;;;;5074449;28;20494;-60
2023/12/24 09:53:10;;;;;;;1.40;1.17;;;;;;;;;;5073617;28;20877;-60
2023/12/24 09:55:38;;;;;;;1.23;1.07;;;;;;;;;;5074272;28;20566;-62
2023/12/24 09:58:05;;;;;;;2.70;1.30;;;;;;;;;;5074392;28;20534;-62
2023/12/24 10:00:31;;;;;;;1.30;1.20;;;;;;;;;;5074222;28;20554;-62
2023/12/24 10:02:58;;;;;;;1.40;1.30;;;;;;;;;;5074038;28;20532;-59
2023/12/24 10:05:27;;;;;;;1.03;1.00;;;;;;;;;;5074140;28;20479;-60
2023/12/24 10:07:54;;;;;;;1.50;1.40;;;;;;;;;;5073957;28;20526;-59
2023/12/24 10:10:30;;;;;;;1.10;1.00;;;;;;;;;;5074124;28;20469;-59
2023/12/24 10:13:05;;;;;;;1.40;1.30;;;;;;;;;;5074283;28;20942;-60
2023/12/24 10:15:32;;;;;;;1.17;0.80;;;;;;;;;;5073937;28;20538;-59
2023/12/24 10:18:15;;;;;;;1.40;1.30;;;;;;;;;;5073910;28;20451;-59
2023/12/24 10:20:44;;;;;;;1.27;1.17;;;;;;;;;;5074047;28;20443;-60
2023/12/24 10:23:11;;;;;;;1.10;1.00;;;;;;;;;;5073744;28;20439;-59
2023/12/24 10:25:38;;;;;;;1.10;0.73;;;;;;;;;;5073633;28;20913;-59
2023/12/24 10:28:08;;;;;;;1.20;1.10;;;;;;;;;;5073621;28;20459;-59
2023/12/24 10:30:35;;;;;;;1.53;0.80;;;;;;;;;;5073440;28;20534;-60
2023/12/24 10:33:09;;;;;;;0.80;0.80;;;;;;;;;;5073490;28;20935;-59
2023/12/24 10:35:36;;;;;;;1.20;0.93;;;;;;;;;;5073623;28;20452;-59
2023/12/24 10:38:13;;;;;;;1.10;1.00;;;;;;;;;;5073646;28;20470;-59
2023/12/24 10:40:40;;;;;;;1.10;0.97;;;;;;;;;;5073376;28;20443;-60
2023/12/24 10:43:07;;;;;;;1.10;1.00;;;;;;;;;;5073308;28;20479;-60
2023/12/24 10:45:34;;;;;;;1.23;1.13;;;;;;;;;;5073362;28;20483;-59
2023/12/24 10:48:01;;;;;;;1.93;1.83;;;;;;;;;;5073362;28;20443;-59
2023/12/24 10:50:28;;;;;;;1.20;1.10;;;;;;;;;;5073089;28;20475;-59
2023/12/24 10:52:55;;;;;;;1.80;1.47;;;;;;;;;;5073089;28;20443;-59
2023/12/24 10:55:24;;;;;;;1.63;1.53;;;;;;;;;;5073001;28;20910;-59
2023/12/24 10:57:54;;;;;;;2.67;2.17;;;;;;;;;;5073063;28;20534;-59
2023/12/24 11:00:22;;;;;;;1.27;1.17;;;;;;;;;;5073490;28;20542;-59
2023/12/24 11:02:49;;;;;;;1.30;1.20;;;;;;;;;;5073020;28;20977;-59
2023/12/24 11:05:31;;;;;;;1.83;1.20;;;;;;;;;;5072312;28;20566;-59
2023/12/24 11:07:58;;;;;;;1.73;1.47;;;;;;;;;;5072844;28;20611;-60
2023/12/24 11:10:43;;;;;;;2.03;1.00;;;;;;;;;;5073269;28;20554;-60
2023/12/24 11:13:24;;;;;;;0.90;0.90;;;;;;;;;;5072977;28;20443;-59
2023/12/24 11:15:50;;;;;;;1.57;1.47;;;;;;;;;;5073001;28;20610;-60
2023/12/24 11:18:37;;;;;;;1.43;1.10;;;;;;;;;;5072894;28;20896;-60
2023/12/24 11:21:04;;;;;;;1.10;0.70;;;;;;;;;;5072730;28;20526;-59
2023/12/24 11:23:31;;;;;;;1.40;0.90;;;;;;;;;;5073120;28;20526;-60
2023/12/24 11:26:00;;;;;;;1.40;1.30;;;;;;;;;;5072775;28;20566;-59
2023/12/24 11:28:36;;;;;;;1.97;1.37;;;;;;;;;;5072822;28;20450;-60
2023/12/24 11:31:04;;;;;;;1.40;1.10;;;;;;;;;;5072614;28;20439;-60
2023/12/24 11:33:46;;;;;;;1.90;1.77;;;;;;;;;;5072845;28;20455;-59
2023/12/24 11:36:13;;;;;;;1.30;1.20;;;;;;;;;;5073059;28;20819;-60
2023/12/24 11:38:40;;;;;;;1.17;1.07;;;;;;;;;;5072624;28;20447;-60
2023/12/24 11:41:09;;;;;;;0.73;0.70;;;;;;;;;;5072615;28;20526;-59
2023/12/24 11:43:36;;;;;;;1.20;1.10;;;;;;;;;;5072526;28;20443;-60
2023/12/24 11:46:03;;;;;;;1.67;1.00;;;;;;;;;;5072704;28;20583;-59
2023/12/24 11:48:30;;;;;;;1.00;0.90;;;;;;;;;;5072712;28;20450;-60
2023/12/24 11:51:04;;;;;;;2.20;1.27;;;;;;;;;;5072566;28;20448;-60
2023/12/24 11:53:32;;;;;;;1.73;1.33;;;;;;;;;;5072579;28;20553;-59
2023/12/24 11:56:07;;;;;;;1.70;1.10;;;;;;;;;;5072556;28;20506;-59
2023/12/24 11:58:36;;;;;;;1.40;1.30;;;;;;;;;;5072725;28;20791;-60
2023/12/24 12:01:03;;;;;;;1.77;1.30;;;;;;;;;;5072685;28;20530;-60
2023/12/24 12:03:30;;;;;;;1.43;1.33;;;;;;;;;;5072422;28;20993;-59
2023/12/24 12:05:57;;;;;;;1.20;1.10;;;;;;;;;;5072375;28;20495;-59
2023/12/24 12:08:24;;;;;;;1.20;1.10;;;;;;;;;;5072383;28;20447;-60
2023/12/24 12:10:51;;;;;;;1.93;1.40;;;;;;;;;;5072657;28;20450;-60
2023/12/24 12:13:19;;;;;;;2.87;2.40;;;;;;;;;;5072589;28;20857;-60
2023/12/24 12:15:47;;;;;;;1.53;1.43;;;;;;;;;;5072966;28;20855;-60
2023/12/24 12:18:15;;;;;;;1.37;1.27;;;;;;;;;;5076170;28;20443;-60
2023/12/24 12:20:42;;;;;;;1.47;1.37;;;;;;;;;;5076148;28;20475;-60
2023/12/24 12:23:10;;;;;;;1.33;1.23;;;;;;;;;;5075922;28;20439;-60
2023/12/24 12:25:37;;;;;;;1.20;0.90;;;;;;;;;;5076009;28;20505;-60
2023/12/24 12:28:04;;;;;;;1.20;1.10;;;;;;;;;;5075922;28;21009;-60
2023/12/24 12:30:31;;;;;;;1.47;1.37;;;;;;;;;;5075784;28;20539;-59
2023/12/24 12:32:59;;;;;;;1.30;1.20;;;;;;;;;;5075836;28;20537;-59
2023/12/24 12:35:26;;;;;;;1.10;1.00;;;;;;;;;;5075666;28;20895;-60
2023/12/24 12:37:53;;;;;;;1.40;1.10;;;;;;;;;;5076160;28;20436;-60
2023/12/24 12:40:20;;;;;;;1.23;0.80;;;;;;;;;;5075893;28;20440;-60
2023/12/24 12:42:47;;;;;;;1.63;1.53;;;;;;;;;;5075746;28;20493;-60
2023/12/24 12:45:14;;;;;;;1.03;0.93;;;;;;;;;;5075638;28;20975;-59
2023/12/24 12:47:41;;;;;;;1.20;1.10;;;;;;;;;;5075595;28;20845;-59
2023/12/24 12:50:10;;;;;;;1.10;0.97;;;;;;;;;;5075325;28;20539;-60
2023/12/24 12:52:37;;;;;;;1.13;1.00;;;;;;;;;;5075650;28;20451;-60
2023/12/24 12:55:04;;;;;;;1.17;1.07;;;;;;;;;;5075357;28;20475;-59
2023/12/24 12:57:32;;;;;;;3.60;3.30;;;;;;;;;;5075431;28;20455;-60
2023/12/24 13:00:08;;;;;;;1.60;1.50;;;;;;;;;;5075514;28;20657;-59
2023/12/24 13:02:35;;;;;;;1.10;1.00;;;;;;;;;;5075176;28;20803;-60
2023/12/24 13:05:02;;;;;;;0.90;0.90;;;;;;;;;;5075296;28;22430;-60
2023/12/24 13:07:34;;;;;;;0.80;0.80;;;;;;;;;;5075446;28;20454;-59
2023/12/24 13:10:01;;;;;;;1.50;1.40;;;;;;;;;;5075366;28;20521;-60
2023/12/24 13:12:29;;;;;;;0.93;0.93;;;;;;;;;;5075228;28;20452;-59
2023/12/24 13:14:57;;;;;;;0.90;0.90;;;;;;;;;;5075095;28;20462;-60
2023/12/24 13:17:24;;;;;;;1.83;1.50;;;;;;;;;;5075266;28;20530;-60
2023/12/24 13:19:53;;;;;;;0.90;0.90;;;;;;;;;;5075134;28;20444;-59
2023/12/24 13:22:21;;;;;;;1.23;1.10;;;;;;;;;;5075134;28;20482;-59
2023/12/24 13:24:51;;;;;;;1.90;1.37;;;;;;;;;;5075034;28;20526;-60
2023/12/24 13:27:18;;;;;;;1.00;0.90;;;;;;;;;;5074282;28;20447;-59
2023/12/24 13:29:45;;;;;;;1.00;0.90;;;;;;;;;;5073681;28;20478;-60
2023/12/24 13:32:12;;;;;;;0.90;0.90;;;;;;;;;;5074405;28;20969;-59
2023/12/24 13:34:39;;;;;;;1.10;1.00;;;;;;;;;;5074849;28;20456;-59
2023/12/24 13:37:08;;;;;;;0.97;0.90;;;;;;;;;;5074653;28;20530;-60
2023/12/24 13:39:35;;;;;;;0.87;0.87;;;;;;;;;;5074798;28;20451;-60
2023/12/24 13:42:04;;;;;;;0.73;0.73;;;;;;;;;;5074498;28;20500;-60
2023/12/24 13:44:30;;;;;;;4.40;0.80;;;;;;;;;;5074488;28;20440;-59
2023/12/24 13:46:57;;;;;;;1.63;0.77;;;;;;;;;;5074424;28;21066;-58
2023/12/24 13:49:27;;;;;;;0.93;0.90;;;;;;;;;;5074207;28;20475;-59
2023/12/24 13:51:55;;;;;;;3.60;0.90;;;;;;;;;;5074198;28;20435;-60
2023/12/24 13:54:23;;;;;;;1.17;1.07;;;;;;;;;;5074140;28;20807;-61
2023/12/24 13:56:50;;;;;;;1.90;1.40;;;;;;;;;;5074250;28;20532;-60
2023/12/24 13:59:19;;;;;;;1.47;1.00;;;;;;;;;;5074387;28;20496;-59
2023/12/24 14:01:46;;;;;;;1.13;1.03;;;;;;;;;;5073889;28;20455;-59
2023/12/24 14:04:13;;;;;;;1.50;1.40;;;;;;;;;;5074274;28;20455;-60
2023/12/24 14:06:40;;;;;;;1.47;1.17;;;;;;;;;;5074092;28;20838;-60
2023/12/24 14:09:08;;;;;;;3.43;1.27;;;;;;;;;;5074000;28;20447;-60
2023/12/24 14:11:35;;;;;;;1.80;1.70;;;;;;;;;;5074245;28;20550;-59
2023/12/24 14:14:02;;;;;;;2.20;1.27;;;;;;;;;;5074004;28;20450;-59
2023/12/24 14:16:32;;;;;;;1.27;1.17;;;;;;;;;;5073557;28;20531;-59
2023/12/24 14:18:58;;;;;;;1.30;1.20;;;;;;;;;;5073894;28;20884;-62
2023/12/24 14:21:25;;;;;;;1.10;0.90;;;;;;;;;;5073589;28;20444;-61
2023/12/24 14:23:52;;;;;;;1.00;0.90;;;;;;;;;;5073878;28;20534;-62
2023/12/24 14:26:19;;;;;;;2.33;1.20;;;;;;;;;;5073751;28;20558;-62
2023/12/24 14:28:46;;;;;;;3.07;1.50;;;;;;;;;;5073742;28;20541;-61
2023/12/24 14:31:15;;;;;;;1.60;1.50;;;;;;;;;;5073701;28;20543;-62
2023/12/24 14:33:43;;;;;;;2.33;1.80;;;;;;;;;;5073486;28;20865;-59
2023/12/24 14:36:10;;;;;;;2.10;2.00;;;;;;;;;;5073433;28;20589;-61
2023/12/24 14:38:37;;;;;;;1.60;1.50;;;;;;;;;;5073168;28;20448;-62
2023/12/24 14:41:04;;;;;;;1.30;1.20;;;;;;;;;;5073307;28;20997;-61
2023/12/24 14:43:30;;;;;;;1.10;1.00;;;;;;;;;;5073472;28;20529;-61
2023/12/24 14:45:58;;;;;;;1.30;1.20;;;;;;;;;;5073295;28;21009;-61